createdAt,value
2023-06-14T00:00:54.123Z,5.97
2023-06-14T00:03:26.069Z,6.13
2023-06-14T00:05:57.135Z,6.83
2023-06-14T00:08:28.297Z,6.13
2023-06-14T00:11:01.911Z,6.60
2023-06-14T00:13:33.016Z,6.73
2023-06-14T00:16:04.977Z,6.60
2023-06-14T00:18:35.845Z,6.50
2023-06-14T00:21:06.896Z,6.90
2023-06-14T00:23:38.108Z,6.93
2023-06-14T00:26:11.747Z,6.17
2023-06-14T00:28:42.844Z,6.33
2023-06-14T00:31:13.918Z,6.77
2023-06-14T00:33:44.887Z,6.40
2023-06-14T00:36:16.348Z,7.30
2023-06-14T00:38:47.433Z,6.10
2023-06-14T00:41:21.018Z,6.03
2023-06-14T00:43:52.250Z,6.27
2023-06-14T00:46:23.501Z,6.10
2023-06-14T00:48:54.991Z,6.07
2023-06-14T00:51:26.237Z,5.60
2023-06-14T00:53:57.293Z,5.77
2023-06-14T00:56:31.256Z,6.00
2023-06-14T00:59:02.584Z,6.40
2023-06-14T01:01:34.781Z,5.70
2023-06-14T01:04:06.403Z,6.80
2023-06-14T01:06:44.075Z,6.37
2023-06-14T01:09:25.077Z,5.93
2023-06-14T01:12:08.761Z,5.90
2023-06-14T01:14:41.481Z,6.63
2023-06-14T01:17:16.693Z,6.40
2023-06-14T01:19:48.537Z,6.30
2023-06-14T01:22:19.618Z,6.43
2023-06-14T01:24:56.340Z,6.00
2023-06-14T01:27:29.906Z,6.30
2023-06-14T01:30:03.418Z,6.90
2023-06-14T01:32:34.702Z,6.07
2023-06-14T01:35:05.798Z,5.87
2023-06-14T01:37:37.149Z,5.87
2023-06-14T01:40:13.658Z,5.93
2023-06-14T01:42:45.712Z,6.37
2023-06-14T01:45:16.800Z,6.00
2023-06-14T01:47:49.094Z,6.17
2023-06-14T01:50:20.353Z,6.50
2023-06-14T01:52:51.362Z,5.90
2023-06-14T01:55:25.894Z,6.17
2023-06-14T01:57:57.247Z,6.20
2023-06-14T02:00:28.434Z,7.00
2023-06-14T02:02:59.569Z,6.10
2023-06-14T02:05:31.498Z,6.60
2023-06-14T02:08:02.570Z,6.40
2023-06-14T02:10:37.061Z,6.00
2023-06-14T02:13:08.126Z,6.43
2023-06-14T02:15:39.220Z,6.20
2023-06-14T02:18:10.257Z,5.90
2023-06-14T02:20:41.337Z,5.90
2023-06-14T02:23:12.297Z,5.90
2023-06-14T02:25:46.245Z,5.60
2023-06-14T02:28:17.277Z,5.57
2023-06-14T02:30:48.260Z,6.10
2023-06-14T02:33:23.148Z,5.50
2023-06-14T02:35:54.202Z,5.20
2023-06-14T02:38:25.132Z,5.40
2023-06-14T02:40:58.612Z,5.60
2023-06-14T02:43:29.548Z,5.10
2023-06-14T02:46:00.597Z,5.73
2023-06-14T02:48:32.003Z,5.27
2023-06-14T02:51:03.008Z,5.27
2023-06-14T02:53:33.905Z,5.30
2023-06-14T02:56:07.903Z,5.77
2023-06-14T02:58:40.708Z,5.60
2023-06-14T03:01:14.084Z,5.27
2023-06-14T03:03:45.287Z,5.63
2023-06-14T03:06:17.865Z,4.17
2023-06-14T03:08:50.180Z,5.00
2023-06-14T03:11:23.957Z,4.80
2023-06-14T03:13:56.498Z,5.10
2023-06-14T03:16:30.205Z,5.00
2023-06-14T03:19:01.198Z,4.80
2023-06-14T03:21:32.251Z,5.13
2023-06-14T03:24:04.869Z,4.87
2023-06-14T03:26:39.120Z,5.33
2023-06-14T03:29:10.004Z,4.93
2023-06-14T03:31:59.797Z,5.50
2023-06-14T03:34:31.622Z,5.40
2023-06-14T03:37:02.556Z,4.90
2023-06-14T03:39:33.489Z,5.50
2023-06-14T03:42:07.966Z,5.33
2023-06-14T03:44:39.620Z,4.77
2023-06-14T03:47:11.273Z,5.27
2023-06-14T03:49:42.541Z,4.50
2023-06-14T03:52:15.274Z,4.90
2023-06-14T03:57:24.320Z,5.30
2023-06-14T03:59:58.299Z,5.43
2023-06-14T04:02:30.084Z,4.53
2023-06-14T04:05:02.344Z,4.53
2023-06-14T04:07:33.529Z,4.70
2023-06-14T04:10:04.436Z,4.50
2023-06-14T04:12:38.068Z,5.00
2023-06-14T04:15:20.478Z,4.53
2023-06-14T04:17:53.042Z,4.40
2023-06-14T04:20:25.285Z,4.80
2023-06-14T04:22:58.479Z,5.23
2023-06-14T04:25:31.889Z,4.60
2023-06-14T04:28:05.385Z,4.80
2023-06-14T04:30:37.250Z,4.30
2023-06-14T04:33:08.469Z,4.80
2023-06-14T04:35:41.953Z,4.73
2023-06-14T04:38:12.989Z,4.73
2023-06-14T04:40:45.410Z,4.17
2023-06-14T04:43:19.744Z,4.23
2023-06-14T04:45:51.116Z,3.90
2023-06-14T04:48:22.595Z,4.20
2023-06-14T04:50:55.131Z,4.37
2023-06-14T04:53:30.405Z,4.63
2023-06-14T04:56:02.041Z,4.10
2023-06-14T04:58:35.709Z,4.70
2023-06-14T05:01:06.831Z,3.97
2023-06-14T05:03:37.956Z,4.37
2023-06-14T05:06:09.084Z,3.83
2023-06-14T05:08:40.172Z,3.93
2023-06-14T05:11:11.364Z,4.00
2023-06-14T05:13:45.843Z,4.03
2023-06-14T05:16:20.324Z,4.50
2023-06-14T05:18:52.155Z,3.80
2023-06-14T05:21:23.099Z,4.13
2023-06-14T05:23:55.263Z,3.60
2023-06-14T05:26:29.796Z,3.80
2023-06-14T05:29:04.732Z,4.23
2023-06-14T05:31:35.992Z,3.93
2023-06-14T05:34:07.095Z,4.00
2023-06-14T05:36:38.415Z,3.53
2023-06-14T05:39:09.685Z,3.70
2023-06-14T05:41:40.650Z,3.87
2023-06-14T05:44:16.476Z,3.60
2023-06-14T05:46:47.857Z,3.77
2023-06-14T05:49:18.939Z,3.87
2023-06-14T05:51:49.897Z,3.70
2023-06-14T05:54:20.888Z,3.83
2023-06-14T05:56:51.781Z,3.60
2023-06-14T05:59:25.337Z,3.70
2023-06-14T06:01:56.284Z,3.70
2023-06-14T06:04:27.634Z,3.90
2023-06-14T06:06:58.582Z,3.50
2023-06-14T06:09:29.527Z,4.20
2023-06-14T06:12:00.469Z,3.60
2023-06-14T06:14:33.990Z,3.60
2023-06-14T06:17:05.006Z,3.83
2023-06-14T06:19:35.978Z,3.57
2023-06-14T06:22:09.250Z,3.93
2023-06-14T06:24:40.305Z,3.93
2023-06-14T06:27:13.691Z,3.47
2023-06-14T06:29:47.472Z,3.60
2023-06-14T06:32:18.871Z,4.00
2023-06-14T06:34:50.513Z,3.10
2023-06-14T06:37:21.629Z,3.47
2023-06-14T06:39:52.593Z,3.67
2023-06-14T06:42:23.536Z,4.17
2023-06-14T06:44:57.212Z,3.87
2023-06-14T06:47:28.385Z,3.17
2023-06-14T06:49:59.536Z,3.00
2023-06-14T06:52:30.548Z,3.23
2023-06-14T06:55:01.844Z,2.70
2023-06-14T06:57:33.182Z,2.40
2023-06-14T07:00:09.179Z,3.20
2023-06-14T07:02:40.742Z,3.13
2023-06-14T07:05:12.100Z,2.70
2023-06-14T07:07:43.100Z,3.37
2023-06-14T07:10:14.111Z,2.83
2023-06-14T07:12:45.077Z,3.20
2023-06-14T07:15:21.049Z,2.47
2023-06-14T07:17:52.042Z,2.30
2023-06-14T07:20:23.897Z,3.00
2023-06-14T07:22:55.094Z,2.40
2023-06-14T07:25:26.508Z,2.60
2023-06-14T07:27:57.660Z,2.70
2023-06-14T07:30:31.531Z,2.87
2023-06-14T07:33:02.572Z,2.63
2023-06-14T07:35:33.673Z,2.70
2023-06-14T07:38:04.626Z,2.67
2023-06-14T07:40:35.622Z,2.70
2023-06-14T07:43:06.963Z,2.90
2023-06-14T07:45:47.947Z,2.70
2023-06-14T07:48:27.666Z,2.67
2023-06-14T07:51:00.325Z,3.30
2023-06-14T07:53:32.053Z,2.20
2023-06-14T07:56:03.911Z,2.43
2023-06-14T07:58:35.010Z,1.93
2023-06-14T08:01:09.248Z,2.47
2023-06-14T08:03:40.530Z,2.63
2023-06-14T08:06:11.787Z,2.57
2023-06-14T08:08:42.930Z,2.50
2023-06-14T08:11:13.824Z,2.00
2023-06-14T08:13:44.758Z,2.30
2023-06-14T08:16:18.362Z,2.13
2023-06-14T08:18:49.367Z,2.00
2023-06-14T08:21:20.591Z,1.90
2023-06-14T08:23:54.951Z,1.97
2023-06-14T08:26:30.275Z,2.03
2023-06-14T08:29:01.357Z,1.70
2023-06-14T08:31:35.752Z,1.67
2023-06-14T08:34:07.492Z,1.97
2023-06-14T08:36:39.502Z,1.50
2023-06-14T08:39:10.902Z,2.00
2023-06-14T08:41:42.136Z,2.00
2023-06-14T08:44:13.213Z,2.03
2023-06-14T08:46:47.294Z,1.83
2023-06-14T08:49:20.904Z,1.97
2023-06-14T08:51:58.702Z,1.80
2023-06-14T08:54:31.434Z,1.90
2023-06-14T08:57:02.753Z,1.77
2023-06-14T08:59:40.263Z,1.70
2023-06-14T09:02:15.815Z,1.70
2023-06-14T09:04:46.813Z,1.90
2023-06-14T09:07:18.372Z,1.80
2023-06-14T09:10:03.057Z,1.30
2023-06-14T09:12:37.536Z,1.30
2023-06-14T09:15:10.384Z,1.50
2023-06-14T09:17:44.644Z,1.50
2023-06-14T09:20:20.409Z,1.23
2023-06-14T09:22:52.069Z,1.70
2023-06-14T09:25:38.014Z,1.40
2023-06-14T09:28:11.755Z,1.40
2023-06-14T09:30:42.876Z,1.40
2023-06-14T09:33:21.693Z,1.50
2023-06-14T09:35:55.886Z,1.90
2023-06-14T09:38:28.727Z,1.53
2023-06-14T09:41:01.666Z,2.00
2023-06-14T09:43:35.152Z,2.10
2023-06-14T09:46:07.569Z,1.53
2023-06-14T09:48:43.961Z,1.93
2023-06-14T09:51:19.536Z,2.03
2023-06-14T09:53:52.854Z,1.93
2023-06-14T09:56:30.892Z,1.77
2023-06-14T09:59:08.052Z,1.93
2023-06-14T10:01:45.201Z,1.80
2023-06-14T10:04:24.309Z,1.70
2023-06-14T10:06:56.662Z,1.90
2023-06-14T10:09:29.356Z,2.20
2023-06-14T10:12:01.747Z,2.40
2023-06-14T10:14:33.296Z,1.90
2023-06-14T10:17:10.687Z,1.87
2023-06-14T10:19:49.160Z,1.80
2023-06-14T10:22:26.303Z,1.67
2023-06-14T10:24:57.252Z,1.90
2023-06-14T10:27:28.196Z,1.63
2023-06-14T10:30:11.468Z,1.20
2023-06-14T10:33:15.980Z,1.70
2023-06-14T10:35:49.656Z,1.67
2023-06-14T10:38:35.521Z,1.70
2023-06-14T10:41:07.639Z,2.07
2023-06-14T10:43:38.639Z,1.80
2023-06-14T10:46:24.226Z,1.70
2023-06-14T10:49:01.708Z,1.40
2023-06-14T10:51:47.518Z,1.50
2023-06-14T10:54:18.874Z,1.60
2023-06-14T10:56:51.175Z,1.73
2023-06-14T10:59:23.473Z,1.80
2023-06-14T11:02:06.855Z,1.70
2023-06-14T11:04:51.670Z,1.93
2023-06-14T11:07:40.589Z,2.10
2023-06-14T11:10:29.356Z,2.30
2023-06-14T11:13:00.541Z,2.10
2023-06-14T11:15:34.600Z,2.50
2023-06-14T11:18:06.305Z,3.13
2023-06-14T11:20:38.630Z,2.20
2023-06-14T11:23:12.146Z,2.20
2023-06-14T11:25:43.054Z,2.23
2023-06-14T11:28:13.940Z,2.63
2023-06-14T11:30:44.949Z,1.90
2023-06-14T11:33:20.442Z,1.80
2023-06-14T11:35:51.468Z,1.97
2023-06-14T11:38:25.060Z,2.47
2023-06-14T11:40:55.957Z,2.40
2023-06-14T11:43:27.577Z,2.17
2023-06-14T11:46:08.430Z,2.30
2023-06-14T11:48:46.795Z,2.30
2023-06-14T11:51:31.476Z,2.57
2023-06-14T11:54:13.370Z,2.37
2023-06-14T11:56:44.772Z,2.30
2023-06-14T11:59:17.758Z,2.43
2023-06-14T12:01:49.241Z,2.50
2023-06-14T12:04:27.966Z,2.93
2023-06-14T12:06:59.086Z,2.10
2023-06-14T12:09:33.851Z,2.37
2023-06-14T12:12:05.156Z,2.40
2023-06-14T12:14:37.132Z,2.30
2023-06-14T12:17:09.819Z,1.80
2023-06-14T12:19:46.750Z,2.00
2023-06-14T12:22:18.146Z,2.47
2023-06-14T12:24:51.895Z,1.93
2023-06-14T12:27:30.179Z,2.30
2023-06-14T12:30:06.085Z,2.10
2023-06-14T12:32:37.276Z,2.13
2023-06-14T12:35:09.237Z,2.47
2023-06-14T12:37:40.443Z,2.37
2023-06-14T12:40:15.690Z,2.20
2023-06-14T12:42:48.627Z,2.03
2023-06-14T12:45:19.971Z,2.00
2023-06-14T12:47:51.207Z,2.30
2023-06-14T12:50:24.673Z,2.10
2023-06-14T12:52:57.514Z,2.07
2023-06-14T12:55:31.261Z,2.20
2023-06-14T12:58:02.258Z,2.57
2023-06-14T13:00:33.816Z,2.30
2023-06-14T13:03:05.085Z,2.10
2023-06-14T13:05:36.169Z,2.33
2023-06-14T13:08:07.473Z,2.10
2023-06-14T13:10:41.098Z,2.27
2023-06-14T13:13:13.549Z,2.23
2023-06-14T13:15:45.166Z,2.10
2023-06-14T13:18:16.825Z,2.57
2023-06-14T13:20:49.227Z,2.60
2023-06-14T13:23:20.532Z,2.33
2023-06-14T13:25:54.392Z,2.10
2023-06-14T13:28:25.372Z,2.60
2023-06-14T13:30:56.954Z,2.60
2023-06-14T13:33:28.186Z,1.90
2023-06-14T13:35:59.460Z,2.50
2023-06-14T13:38:30.685Z,2.80
2023-06-14T13:41:04.271Z,2.70
2023-06-14T13:43:35.266Z,2.50
2023-06-14T13:46:06.277Z,2.33
2023-06-14T13:48:37.448Z,2.30
2023-06-14T13:51:08.465Z,2.60
2023-06-14T13:53:41.884Z,2.47
2023-06-14T13:56:15.423Z,2.57
2023-06-14T13:58:46.551Z,2.40
2023-06-14T14:01:19.433Z,2.60
2023-06-14T14:03:50.862Z,2.30
2023-06-14T14:06:22.441Z,2.60
2023-06-14T14:08:53.804Z,2.37
2023-06-14T14:11:27.518Z,2.60
2023-06-14T14:13:59.430Z,2.97
2023-06-14T14:16:31.682Z,3.10
2023-06-14T14:19:03.334Z,2.83
2023-06-14T14:21:34.468Z,2.67
2023-06-14T14:24:09.109Z,2.53
2023-06-14T14:26:42.894Z,2.40
2023-06-14T14:29:14.802Z,2.43
2023-06-14T14:31:45.871Z,2.20
2023-06-14T14:34:17.100Z,2.57
2023-06-14T14:36:48.064Z,2.93
2023-06-14T14:39:19.467Z,2.40
2023-06-14T14:41:53.959Z,2.43
2023-06-14T14:44:25.052Z,2.50
2023-06-14T14:46:55.987Z,2.63
2023-06-14T14:49:26.872Z,2.50
2023-06-14T14:52:05.316Z,2.70
2023-06-14T14:54:48.049Z,2.60
2023-06-14T14:57:21.548Z,2.63
2023-06-14T14:59:52.546Z,2.33
2023-06-14T15:02:24.854Z,3.10
2023-06-14T15:04:58.619Z,3.10
2023-06-14T15:07:29.617Z,2.30
2023-06-14T15:10:00.629Z,3.17
2023-06-14T15:12:34.116Z,3.70
2023-06-14T15:15:05.182Z,2.30
2023-06-14T15:17:36.178Z,3.60
2023-06-14T15:20:08.660Z,2.60
2023-06-14T15:22:39.712Z,2.60
2023-06-14T15:25:14.250Z,3.37
2023-06-14T15:27:48.005Z,3.97
2023-06-14T15:30:22.127Z,3.20
2023-06-14T15:32:53.369Z,3.33
2023-06-14T15:35:24.421Z,2.70
2023-06-14T15:37:55.582Z,2.97
2023-06-14T15:40:27.212Z,8.40
2023-06-14T15:43:00.807Z,2.97
2023-06-14T15:45:32.354Z,8.20
2023-06-14T15:48:03.737Z,2.60
2023-06-14T15:50:34.785Z,2.93
2023-06-14T15:53:08.409Z,3.50
2023-06-14T15:55:39.580Z,2.43
2023-06-14T15:58:13.090Z,2.60
2023-06-14T16:00:44.060Z,2.77
2023-06-14T16:03:17.978Z,2.47
2023-06-14T16:05:49.037Z,2.30
2023-06-14T16:08:35.590Z,3.43
2023-06-14T16:11:11.093Z,2.57
2023-06-14T16:13:46.097Z,2.70
2023-06-14T16:16:17.174Z,2.10
2023-06-14T16:18:48.132Z,2.57
2023-06-14T16:21:19.172Z,2.53
2023-06-14T16:23:50.242Z,2.37
2023-06-14T16:26:21.491Z,2.40
2023-06-14T16:28:55.062Z,2.30
2023-06-14T16:31:26.655Z,2.60
2023-06-14T16:33:58.060Z,2.63
2023-06-14T16:36:29.165Z,2.53
2023-06-14T16:39:00.253Z,2.27
2023-06-14T16:41:31.170Z,2.30
2023-06-14T16:44:06.218Z,2.47
2023-06-14T16:46:38.765Z,2.80
2023-06-14T16:49:09.854Z,2.30
2023-06-14T16:51:40.782Z,2.43
2023-06-14T16:54:12.089Z,2.20
2023-06-14T16:56:43.126Z,2.07
2023-06-14T16:59:16.987Z,2.67
2023-06-14T17:01:48.006Z,2.77
2023-06-14T17:04:19.065Z,2.73
2023-06-14T17:06:50.076Z,2.20
2023-06-14T17:09:21.010Z,2.37
2023-06-14T17:11:52.291Z,3.10
2023-06-14T17:14:26.896Z,3.00
2023-06-14T17:16:58.344Z,2.60
2023-06-14T17:19:30.228Z,2.03
2023-06-14T17:22:01.554Z,2.30
2023-06-14T17:24:32.540Z,2.37
2023-06-14T17:27:03.524Z,2.10
2023-06-14T17:29:37.038Z,2.53
2023-06-14T17:32:09.327Z,2.10
2023-06-14T17:34:40.614Z,2.40
2023-06-14T17:37:14.132Z,2.27
2023-06-14T17:39:45.360Z,2.17
2023-06-14T17:42:16.260Z,2.80
2023-06-14T17:44:52.254Z,2.27
2023-06-14T17:47:35.696Z,2.20
2023-06-14T17:50:08.627Z,2.33
2023-06-14T17:52:41.176Z,1.90
2023-06-14T17:55:13.190Z,2.13
2023-06-14T17:57:51.901Z,2.10
2023-06-14T18:00:27.503Z,2.00
2023-06-14T18:03:05.299Z,2.10
2023-06-14T18:05:38.904Z,2.10
2023-06-14T18:08:16.270Z,2.50
2023-06-14T18:10:47.520Z,2.40
2023-06-14T18:13:19.008Z,2.30
2023-06-14T18:15:52.662Z,2.30
2023-06-14T18:18:26.050Z,2.03
2023-06-14T18:20:57.101Z,2.30
2023-06-14T18:23:27.996Z,2.20
2023-06-14T18:25:58.989Z,2.10
2023-06-14T18:28:29.875Z,2.00
2023-06-14T18:31:03.575Z,2.50
2023-06-14T18:33:34.829Z,1.90
2023-06-14T18:36:05.886Z,2.10
2023-06-14T18:38:37.471Z,2.40
2023-06-14T18:41:08.727Z,2.00
2023-06-14T18:43:39.784Z,2.00
2023-06-14T18:46:13.804Z,1.90
2023-06-14T18:48:45.029Z,2.30
2023-06-14T18:51:16.028Z,2.10
2023-06-14T18:53:47.014Z,2.20
2023-06-14T18:56:18.130Z,2.40
2023-06-14T18:58:49.022Z,2.07
2023-06-14T19:01:22.673Z,2.17
2023-06-14T19:03:53.684Z,2.10
2023-06-14T19:06:25.570Z,1.87
2023-06-14T19:08:56.625Z,2.00
2023-06-14T19:11:27.553Z,2.00
2023-06-14T19:13:58.532Z,2.20
2023-06-14T19:16:32.196Z,2.07
2023-06-14T19:19:03.117Z,2.80
2023-06-14T19:21:34.209Z,1.80
2023-06-14T19:24:08.554Z,2.10
2023-06-14T19:26:39.725Z,2.00
2023-06-14T19:29:10.672Z,2.00
2023-06-14T19:31:44.630Z,2.20
2023-06-14T19:34:15.748Z,2.00
2023-06-14T19:36:46.720Z,2.03
2023-06-14T19:39:18.468Z,1.87
2023-06-14T19:41:50.931Z,2.07
2023-06-14T19:44:21.883Z,2.17
2023-06-14T19:46:55.544Z,2.50
2023-06-14T19:49:26.506Z,2.50
2023-06-14T19:51:57.426Z,1.93
2023-06-14T19:54:28.437Z,2.00
2023-06-14T19:56:59.310Z,2.03
2023-06-14T19:59:32.330Z,2.30
2023-06-14T20:02:06.034Z,2.63
2023-06-14T20:04:37.455Z,2.07
2023-06-14T20:07:09.489Z,2.57
2023-06-14T20:09:40.601Z,2.67
2023-06-14T20:12:12.495Z,2.43
2023-06-14T20:14:43.385Z,2.40
2023-06-14T20:17:17.126Z,2.07
2023-06-14T20:19:50.003Z,2.70
2023-06-14T20:22:21.017Z,2.50
2023-06-14T20:24:52.378Z,2.50
2023-06-14T20:27:23.298Z,2.60
2023-06-14T20:29:54.231Z,2.60
2023-06-14T20:32:28.256Z,2.90
2023-06-14T20:34:59.630Z,2.60
2023-06-14T20:37:30.623Z,2.80
2023-06-14T20:40:03.805Z,3.67
2023-06-14T20:42:37.922Z,3.17
2023-06-14T20:45:10.044Z,3.40
2023-06-14T20:47:44.326Z,3.03
2023-06-14T20:50:17.474Z,3.33
2023-06-14T20:52:49.746Z,3.20
2023-06-14T20:55:21.007Z,5.33
2023-06-14T20:57:52.112Z,4.90
2023-06-14T21:00:23.380Z,5.67
2023-06-14T21:02:58.092Z,4.43
2023-06-14T21:05:30.750Z,4.27
2023-06-14T21:08:02.218Z,4.77
2023-06-14T21:10:33.192Z,6.83
2023-06-14T21:13:04.203Z,6.83
2023-06-14T21:15:35.316Z,5.80
2023-06-14T21:18:10.896Z,7.10
2023-06-14T21:20:42.018Z,5.27
2023-06-14T21:23:14.531Z,5.63
2023-06-14T21:25:45.428Z,4.70
2023-06-14T21:28:19.177Z,4.10
2023-06-14T21:30:50.336Z,3.90
2023-06-14T21:33:23.899Z,4.80
2023-06-14T21:35:54.963Z,4.67
2023-06-14T21:38:25.909Z,5.00
2023-06-14T21:40:57.215Z,4.73
2023-06-14T21:43:28.176Z,4.70
2023-06-14T21:45:59.156Z,4.70
2023-06-14T21:48:32.644Z,5.00
2023-06-14T21:51:03.685Z,5.30
2023-06-14T21:53:35.016Z,4.43
2023-06-14T21:56:06.299Z,5.30
2023-06-14T21:58:37.302Z,5.00
2023-06-14T22:01:08.382Z,4.53
2023-06-14T22:03:42.287Z,5.53
2023-06-14T22:06:13.590Z,4.97
2023-06-14T22:08:45.893Z,4.90
2023-06-14T22:11:16.909Z,4.20
2023-06-14T22:13:49.734Z,4.17
2023-06-14T22:16:22.072Z,5.20
2023-06-14T22:18:57.849Z,4.80
2023-06-14T22:21:29.862Z,4.63
2023-06-14T22:24:00.884Z,8.30
2023-06-14T22:26:40.568Z,6.90
2023-06-14T22:29:11.912Z,6.40
2023-06-14T22:31:43.103Z,7.50
2023-06-14T22:34:16.928Z,5.77
2023-06-14T22:36:49.064Z,6.67
2023-06-14T22:39:20.182Z,5.43
2023-06-14T22:41:51.441Z,7.47
2023-06-14T22:44:23.087Z,7.10
2023-06-14T22:46:56.856Z,6.03
2023-06-14T22:49:32.209Z,5.80
2023-06-14T22:52:05.904Z,6.07
2023-06-14T22:54:37.168Z,5.60
2023-06-14T22:57:17.582Z,6.10
2023-06-14T22:59:49.384Z,5.57
2023-06-14T23:02:20.897Z,4.30
2023-06-14T23:04:54.668Z,5.63
2023-06-14T23:07:28.470Z,5.20
2023-06-14T23:09:59.842Z,5.03
2023-06-14T23:12:30.993Z,5.73
2023-06-14T23:15:03.358Z,5.30
2023-06-14T23:17:34.538Z,5.27
2023-06-14T23:20:11.502Z,4.90
2023-06-14T23:22:44.685Z,4.80
2023-06-14T23:25:15.772Z,4.70
2023-06-14T23:27:47.094Z,4.73
2023-06-14T23:30:18.753Z,5.07
2023-06-14T23:32:50.941Z,4.53
2023-06-14T23:35:27.403Z,4.87
2023-06-14T23:37:59.107Z,4.87
2023-06-14T23:40:31.694Z,5.70
2023-06-14T23:43:03.771Z,4.83
2023-06-14T23:45:35.105Z,5.20
2023-06-14T23:48:06.711Z,5.40
2023-06-14T23:50:40.318Z,6.20
2023-06-14T23:53:11.325Z,5.80
2023-06-14T23:55:42.571Z,5.33
2023-06-14T23:58:13.457Z,5.03
